map of YIO home
YIO - Airport
Location
City:  Pond Inlet, Nunavut, Canada
Name:Pond Inlet Airport
ICAO:CYIO
IATA:YIO

Details
Type:Airport (Airfield)
Use:Public/Civil
Latitude:7241'22"N (72.689444)
Longitude:7758'08"W (-77.968888)
Elevation:202 ft (62 m)
Variation:34.97W (WMM2015v2 magnetic declination)
0.92 annual change
Runways:1
Longest:4006 ft (1221 m)

Time
Time Zone:UTC-5 (DST-4)
Local Time:

Weather
METAR:CYIO 041416Z AUTO 00000KT 5SM HZ SCT002 M32/M36 A3013 RMK SLP216
TAF:CYIO 041238Z 0413/0501 16005KT P6SM SKC
TEMPO 0413/0416 5SM IC
RMK FCST BASED ON AUTO OBS. NXT FCST BY 041900Z

Related Locations
Nearby:
Farthest:YWKS: 11958 mi / 19244 km
Wilkins Runway (Casey), Upper Peterson Glacier, AQ

Find:

   beyond  
but within

Other Information
Maps:
NOTAMs:
Links:
Sources:

  
  • flag of Canada
  • flag of Nunavut
  

Airport Diagram

Airport diagram for YIO

Airport diagram PDF

Sectional Chart

Flight Planning
at skyvector.com

Satellite Image

Google Maps Satellite view

 

Copyright © 2004-2019 Karl L. Swartz. All rights reserved.
The Great Circle Mapper name and logo are trademarks of the Great Circle Mapper.
All other trademarks mentioned herein belong to their respective owners.
Please see credits for attibutions and further copyright information.

  Follow gcmap on Facebook Follow gcmap on Twitter GCmap on LinkedIn

hCard Microformat

Geo Microformat